Time;durP1;ratioP1;P1;durP2;ratioP2;P2;SDS_P1;SDS_P2;PMS_P1;PMS_P2;Temp;Humidity;BMP_temperature;BMP_pressure;BME280_temperature;BME280_humidity;BME280_pressure;Samples;Min_cycle;Max_cycle;Signal;HPM_P1;HPM_P2
2022/07/18 00:01:40;;;;;;;12.73;5.90;;;;;;;;;;5063125;28;20040;-72
2022/07/18 00:04:06;;;;;;;9.73;6.63;;;;;;;;;;5040420;28;20024;-71
2022/07/18 00:06:32;;;;;;;7.57;6.30;;;;;;;;;;5066836;28;20020;-71
2022/07/18 00:08:59;;;;;;;7.20;6.50;;;;;;;;;;5042805;28;20029;-72
2022/07/18 00:11:25;;;;;;;7.15;6.45;;;;;;;;;;5065120;28;20032;-71
2022/07/18 00:13:51;;;;;;;8.98;6.15;;;;;;;;;;5066218;28;20484;-72
2022/07/18 00:16:17;;;;;;;7.18;6.57;;;;;;;;;;5051579;28;20032;-72
2022/07/18 00:18:44;;;;;;;7.03;6.32;;;;;;;;;;5065496;28;20071;-72
2022/07/18 00:21:10;;;;;;;7.55;6.60;;;;;;;;;;5066653;28;20062;-72
2022/07/18 00:23:36;;;;;;;7.55;6.85;;;;;;;;;;5065553;28;20035;-72
2022/07/18 00:26:02;;;;;;;7.68;6.95;;;;;;;;;;5066207;28;20017;-72
2022/07/18 00:28:28;;;;;;;11.57;7.00;;;;;;;;;;5062939;28;20032;-71
2022/07/18 00:30:54;;;;;;;7.25;6.60;;;;;;;;;;5062691;28;20025;-72
2022/07/18 00:33:21;;;;;;;7.78;6.85;;;;;;;;;;5064747;28;20020;-72
2022/07/18 00:35:47;;;;;;;7.60;6.88;;;;;;;;;;5063012;28;20057;-72
2022/07/18 00:38:13;;;;;;;7.13;6.43;;;;;;;;;;5059785;28;20021;-72
2022/07/18 00:40:39;;;;;;;7.60;6.88;;;;;;;;;;5069228;28;20024;-71
2022/07/18 00:43:05;;;;;;;8.13;6.85;;;;;;;;;;5063008;28;20017;-72
2022/07/18 00:45:31;;;;;;;7.85;6.97;;;;;;;;;;5069463;28;20074;-71
2022/07/18 00:47:58;;;;;;;7.88;7.18;;;;;;;;;;5062633;28;20111;-71
2022/07/18 00:50:24;;;;;;;7.45;6.85;;;;;;;;;;5067428;28;20075;-72
2022/07/18 00:52:50;;;;;;;11.85;8.30;;;;;;;;;;5060685;28;20112;-72
2022/07/18 00:55:17;;;;;;;8.80;6.55;;;;;;;;;;5065400;28;20481;-72
2022/07/18 00:57:43;;;;;;;7.68;7.07;;;;;;;;;;5064580;28;20048;-72
2022/07/18 01:02:57;;;;;;;7.60;6.95;;;;;;;;;;5067137;28;20044;-72
2022/07/18 01:05:23;;;;;;;8.10;7.30;;;;;;;;;;5066471;28;20017;-71
2022/07/18 01:07:51;;;;;;;8.45;7.45;;;;;;;;;;5067091;28;20538;-71
2022/07/18 01:10:18;;;;;;;7.70;7.10;;;;;;;;;;5067952;28;20503;-72
2022/07/18 01:12:44;;;;;;;7.70;7.10;;;;;;;;;;5063014;28;20032;-72
2022/07/18 01:15:11;;;;;;;7.53;6.72;;;;;;;;;;5063816;28;20048;-71
2022/07/18 01:17:37;;;;;;;7.70;6.93;;;;;;;;;;5067420;28;20040;-71
2022/07/18 01:20:04;;;;;;;7.38;6.72;;;;;;;;;;5063888;28;20757;-71
2022/07/18 01:22:30;;;;;;;7.82;7.03;;;;;;;;;;5064145;28;20020;-71
2022/07/18 01:24:56;;;;;;;7.80;7.00;;;;;;;;;;5063364;28;20016;-73
2022/07/18 01:27:22;;;;;;;8.70;7.25;;;;;;;;;;5060995;28;20032;-72
2022/07/18 01:29:49;;;;;;;7.75;7.00;;;;;;;;;;5062577;28;20020;-71
2022/07/18 01:32:16;;;;;;;8.10;7.40;;;;;;;;;;5062037;28;20086;-72
2022/07/18 01:34:43;;;;;;;7.63;6.97;;;;;;;;;;5064899;28;20036;-72
2022/07/18 01:37:09;;;;;;;8.75;6.60;;;;;;;;;;5060999;28;20059;-72
2022/07/18 01:39:36;;;;;;;7.57;6.80;;;;;;;;;;5066877;28;20074;-72
2022/07/18 01:42:06;;;;;;;6.90;6.28;;;;;;;;;;5061091;28;20027;-72
2022/07/18 01:44:33;;;;;;;6.15;5.65;;;;;;;;;;5066717;28;20653;-72
2022/07/18 01:46:59;;;;;;;6.95;6.35;;;;;;;;;;5057224;28;20024;-72
2022/07/18 01:49:25;;;;;;;6.80;6.20;;;;;;;;;;5068125;28;20024;-72
2022/07/18 01:51:53;;;;;;;7.15;6.55;;;;;;;;;;5068583;28;20048;-72
2022/07/18 01:54:26;;;;;;;7.40;6.13;;;;;;;;;;5063404;28;20049;-72
2022/07/18 01:56:52;;;;;;;10.55;6.30;;;;;;;;;;5064797;28;20017;-72
2022/07/18 01:59:19;;;;;;;7.80;6.88;;;;;;;;;;5061709;28;20897;-72
2022/07/18 02:01:45;;;;;;;7.10;6.50;;;;;;;;;;5066669;28;20031;-72
2022/07/18 02:04:12;;;;;;;6.50;5.90;;;;;;;;;;5062931;28;20550;-71
2022/07/18 02:06:38;;;;;;;6.30;5.80;;;;;;;;;;5068298;28;20098;-72
2022/07/18 02:09:06;;;;;;;7.30;5.90;;;;;;;;;;5063887;28;20044;-71
2022/07/18 02:11:32;;;;;;;7.13;6.43;;;;;;;;;;5067114;28;20078;-72
2022/07/18 02:13:58;;;;;;;6.07;5.32;;;;;;;;;;5066881;28;20033;-72
2022/07/18 02:16:24;;;;;;;6.55;5.95;;;;;;;;;;5071903;28;20035;-72
2022/07/18 02:18:50;;;;;;;7.10;6.10;;;;;;;;;;5066003;28;20435;-71
2022/07/18 02:21:16;;;;;;;6.80;6.10;;;;;;;;;;5066153;28;20035;-72
2022/07/18 02:23:43;;;;;;;6.22;5.60;;;;;;;;;;5063136;28;20024;-71
2022/07/18 02:26:10;;;;;;;6.88;6.22;;;;;;;;;;5069297;28;20116;-72
2022/07/18 02:28:36;;;;;;;7.65;6.35;;;;;;;;;;5069114;28;20017;-72
2022/07/18 02:31:04;;;;;;;6.70;6.10;;;;;;;;;;5069836;28;20020;-72
2022/07/18 02:33:30;;;;;;;6.88;6.32;;;;;;;;;;5060600;28;20547;-71
2022/07/18 02:35:56;;;;;;;7.15;6.45;;;;;;;;;;5066148;28;20024;-72
2022/07/18 02:38:22;;;;;;;6.43;5.82;;;;;;;;;;5071519;28;20490;-71
2022/07/18 02:40:48;;;;;;;7.75;7.00;;;;;;;;;;5071926;28;20043;-71
2022/07/18 02:43:15;;;;;;;6.63;6.05;;;;;;;;;;5071644;28;20032;-71
2022/07/18 02:45:42;;;;;;;6.85;6.25;;;;;;;;;;5067177;28;20028;-72
2022/07/18 02:48:08;;;;;;;8.18;6.57;;;;;;;;;;5067842;28;20077;-71
2022/07/18 02:50:34;;;;;;;6.38;5.88;;;;;;;;;;5070137;28;20024;-71
2022/07/18 02:53:01;;;;;;;6.22;5.63;;;;;;;;;;5061921;28;20025;-72
2022/07/18 02:55:27;;;;;;;6.57;5.93;;;;;;;;;;5063727;28;20384;-72
2022/07/18 02:57:53;;;;;;;5.95;5.45;;;;;;;;;;5069683;28;20465;-71
2022/07/18 03:00:19;;;;;;;5.68;5.10;;;;;;;;;;5068998;28;20029;-72
2022/07/18 03:02:46;;;;;;;5.95;5.38;;;;;;;;;;5059394;28;20009;-71
2022/07/18 03:05:12;;;;;;;6.68;5.72;;;;;;;;;;5049900;28;20032;-72
2022/07/18 03:07:39;;;;;;;6.43;5.80;;;;;;;;;;5065455;28;20024;-71
2022/07/18 03:10:05;;;;;;;6.55;5.50;;;;;;;;;;5068526;28;20561;-71
2022/07/18 03:12:32;;;;;;;6.80;6.00;;;;;;;;;;5063221;28;20070;-71
2022/07/18 03:14:59;;;;;;;6.72;6.10;;;;;;;;;;5062781;28;20025;-72
2022/07/18 03:17:25;;;;;;;6.95;6.10;;;;;;;;;;5056423;28;20106;-71
2022/07/18 03:19:51;;;;;;;6.45;5.95;;;;;;;;;;5061711;28;20036;-71
2022/07/18 03:22:17;;;;;;;6.53;5.93;;;;;;;;;;5062403;28;20547;-72
2022/07/18 03:24:43;;;;;;;7.57;6.75;;;;;;;;;;5061238;28;20024;-72
2022/07/18 03:27:09;;;;;;;6.70;6.10;;;;;;;;;;5061086;28;20447;-71
2022/07/18 03:29:36;;;;;;;6.97;6.32;;;;;;;;;;5058551;28;20020;-71
2022/07/18 03:32:02;;;;;;;7.25;6.55;;;;;;;;;;5047307;28;20016;-71
2022/07/18 03:34:28;;;;;;;8.80;6.63;;;;;;;;;;5057479;28;20045;-72
2022/07/18 03:36:54;;;;;;;7.00;6.30;;;;;;;;;;5060973;28;20024;-71
2022/07/18 03:39:20;;;;;;;6.53;5.90;;;;;;;;;;5059560;28;20021;-71
2022/07/18 03:41:46;;;;;;;6.93;5.95;;;;;;;;;;5061308;28;20016;-72
2022/07/18 03:44:12;;;;;;;6.32;5.72;;;;;;;;;;5059983;28;20798;-72
2022/07/18 03:46:39;;;;;;;6.40;5.78;;;;;;;;;;5059924;28;20029;-71
2022/07/18 03:49:05;;;;;;;7.28;5.70;;;;;;;;;;5059107;28;20032;-71
2022/07/18 03:51:31;;;;;;;6.40;5.88;;;;;;;;;;5062450;28;20025;-72
2022/07/18 03:53:57;;;;;;;9.15;6.55;;;;;;;;;;5056564;28;20037;-73
2022/07/18 03:56:23;;;;;;;11.10;5.90;;;;;;;;;;5044588;28;20028;-72
2022/07/18 03:58:49;;;;;;;6.15;5.65;;;;;;;;;;5052010;28;20032;-73
2022/07/18 04:01:15;;;;;;;8.05;6.28;;;;;;;;;;5049497;28;20111;-72
2022/07/18 04:03:41;;;;;;;6.72;6.10;;;;;;;;;;5053975;28;20827;-73
2022/07/18 04:06:08;;;;;;;6.75;6.20;;;;;;;;;;5058371;28;20032;-74
2022/07/18 04:08:34;;;;;;;7.30;6.60;;;;;;;;;;5056950;28;20576;-73
2022/07/18 04:11:00;;;;;;;7.28;6.60;;;;;;;;;;5056700;28;20597;-73
2022/07/18 04:13:26;;;;;;;8.80;6.65;;;;;;;;;;5057686;28;20415;-74
2022/07/18 04:15:52;;;;;;;6.93;6.32;;;;;;;;;;5054286;28;20025;-74
2022/07/18 04:18:18;;;;;;;7.93;7.13;;;;;;;;;;5055824;28;20109;-72
2022/07/18 04:20:44;;;;;;;7.63;6.88;;;;;;;;;;5039111;28;20036;-73
2022/07/18 04:23:11;;;;;;;10.60;7.40;;;;;;;;;;5060256;28;20048;-74
2022/07/18 04:25:42;;;;;;;7.85;7.13;;;;;;;;;;5060280;28;20020;-73
2022/07/18 04:28:09;;;;;;;7.85;6.88;;;;;;;;;;5060444;28;20039;-73
2022/07/18 04:30:36;;;;;;;8.18;7.22;;;;;;;;;;5058387;28;20032;-73
2022/07/18 04:33:05;;;;;;;9.43;8.15;;;;;;;;;;5059986;28;20421;-73
2022/07/18 04:35:32;;;;;;;8.23;7.35;;;;;;;;;;5060534;28;20048;-73
2022/07/18 04:37:58;;;;;;;7.55;6.85;;;;;;;;;;5060318;28;20098;-73
2022/07/18 04:40:24;;;;;;;7.95;6.95;;;;;;;;;;5050434;28;20036;-74
2022/07/18 04:42:51;;;;;;;7.88;7.10;;;;;;;;;;5058589;28;20035;-73
2022/07/18 04:45:21;;;;;;;6.85;6.20;;;;;;;;;;5059350;28;20117;-72
2022/07/18 04:47:47;;;;;;;9.18;6.22;;;;;;;;;;5059514;28;20063;-72
2022/07/18 04:50:13;;;;;;;6.57;5.95;;;;;;;;;;5059373;28;20024;-73
2022/07/18 04:52:40;;;;;;;15.05;6.65;;;;;;;;;;5058204;28;20066;-73
2022/07/18 04:55:07;;;;;;;6.70;6.10;;;;;;;;;;5059514;28;20106;-74
2022/07/18 04:57:34;;;;;;;7.00;6.35;;;;;;;;;;5059768;28;20359;-73
2022/07/18 05:00:00;;;;;;;6.75;6.05;;;;;;;;;;5059627;28;20040;-75
2022/07/18 05:02:26;;;;;;;7.80;6.72;;;;;;;;;;5059482;28;20028;-73
2022/07/18 05:04:52;;;;;;;7.43;6.32;;;;;;;;;;5057942;28;20029;-75
2022/07/18 05:07:19;;;;;;;7.90;6.13;;;;;;;;;;5054798;28;20075;-73
2022/07/18 05:09:45;;;;;;;6.68;5.93;;;;;;;;;;5048619;28;20082;-73
2022/07/18 05:12:11;;;;;;;6.88;6.18;;;;;;;;;;5059540;28;20024;-73
2022/07/18 05:14:37;;;;;;;6.65;6.05;;;;;;;;;;5057714;28;20036;-73
2022/07/18 05:17:03;;;;;;;8.38;6.35;;;;;;;;;;5059552;28;20075;-74
2022/07/18 05:19:29;;;;;;;7.25;6.55;;;;;;;;;;5053645;28;20314;-74
2022/07/18 05:21:55;;;;;;;10.35;6.72;;;;;;;;;;5042394;28;20598;-73
2022/07/18 05:24:22;;;;;;;7.78;6.95;;;;;;;;;;5055318;28;20044;-73
2022/07/18 05:26:48;;;;;;;7.05;6.35;;;;;;;;;;5059460;28;20056;-73
2022/07/18 05:29:14;;;;;;;11.68;6.93;;;;;;;;;;5046686;28;20028;-72
2022/07/18 05:31:41;;;;;;;6.65;5.93;;;;;;;;;;5061590;28;20751;-73
2022/07/18 05:34:08;;;;;;;9.25;6.10;;;;;;;;;;5059870;28;20042;-71
2022/07/18 05:36:34;;;;;;;7.57;6.72;;;;;;;;;;5046784;28;20033;-71
2022/07/18 05:39:00;;;;;;;11.00;6.50;;;;;;;;;;5048503;28;20035;-72
2022/07/18 05:41:26;;;;;;;6.65;6.00;;;;;;;;;;5048329;28;20019;-73
2022/07/18 05:43:52;;;;;;;9.63;6.70;;;;;;;;;;5048616;28;20799;-72
2022/07/18 05:46:19;;;;;;;7.22;6.47;;;;;;;;;;5063337;28;20024;-71
2022/07/18 05:48:45;;;;;;;8.40;6.35;;;;;;;;;;5058109;28;20068;-74
2022/07/18 05:51:12;;;;;;;6.40;5.63;;;;;;;;;;5056969;28;20034;-72
2022/07/18 05:53:38;;;;;;;9.38;6.07;;;;;;;;;;5049538;28;20033;-72
2022/07/18 05:56:04;;;;;;;10.20;6.38;;;;;;;;;;5064200;28;20079;-72
2022/07/18 05:58:30;;;;;;;6.20;5.70;;;;;;;;;;5066055;28;20021;-73
2022/07/18 06:00:57;;;;;;;5.75;5.20;;;;;;;;;;5065817;28;20023;-72
2022/07/18 06:03:23;;;;;;;12.10;6.38;;;;;;;;;;5063632;28;20069;-74
2022/07/18 06:05:49;;;;;;;8.50;5.13;;;;;;;;;;5058063;28;20044;-72
2022/07/18 06:08:16;;;;;;;6.32;5.68;;;;;;;;;;5054186;28;20021;-71
2022/07/18 06:10:42;;;;;;;6.22;5.63;;;;;;;;;;5057860;28;20032;-72
2022/07/18 06:13:09;;;;;;;10.32;6.65;;;;;;;;;;5057297;28;20140;-71
2022/07/18 06:15:36;;;;;;;8.98;6.00;;;;;;;;;;5061443;28;20463;-72
2022/07/18 06:18:02;;;;;;;7.05;5.20;;;;;;;;;;5058077;28;20569;-71
2022/07/18 06:20:28;;;;;;;5.88;5.32;;;;;;;;;;5056310;28;20480;-71
2022/07/18 06:22:54;;;;;;;7.35;5.38;;;;;;;;;;5058690;28;20492;-71
2022/07/18 06:25:20;;;;;;;6.60;5.90;;;;;;;;;;5053871;28;20742;-71
2022/07/18 06:27:46;;;;;;;6.72;5.95;;;;;;;;;;5054985;28;20424;-71
2022/07/18 06:30:13;;;;;;;6.60;5.20;;;;;;;;;;5060025;28;20041;-71
2022/07/18 06:32:39;;;;;;;6.13;5.50;;;;;;;;;;5061705;28;20025;-71
2022/07/18 06:35:06;;;;;;;6.00;5.45;;;;;;;;;;5052234;28;20036;-72
2022/07/18 06:37:32;;;;;;;5.70;5.20;;;;;;;;;;5058037;28;20086;-72
2022/07/18 06:39:58;;;;;;;5.80;5.40;;;;;;;;;;5064913;28;20033;-71
2022/07/18 06:42:24;;;;;;;5.97;5.47;;;;;;;;;;5059362;28;20036;-71
2022/07/18 06:44:50;;;;;;;5.70;5.22;;;;;;;;;;5059650;28;20042;-71
2022/07/18 06:47:16;;;;;;;9.02;5.85;;;;;;;;;;5045495;28;20035;-71
2022/07/18 06:49:42;;;;;;;5.78;5.22;;;;;;;;;;5055416;28;21606;-72
2022/07/18 06:52:11;;;;;;;6.07;5.47;;;;;;;;;;5048833;28;20487;-72
2022/07/18 06:54:39;;;;;;;6.07;5.57;;;;;;;;;;5061225;28;20029;-71
2022/07/18 06:57:07;;;;;;;6.68;5.35;;;;;;;;;;5052933;28;20029;-71
2022/07/18 06:59:33;;;;;;;8.70;5.72;;;;;;;;;;5051706;28;20067;-71
2022/07/18 07:02:00;;;;;;;6.55;5.78;;;;;;;;;;5052341;28;20028;-71
2022/07/18 07:04:26;;;;;;;6.45;5.85;;;;;;;;;;5058073;28;20029;-72
2022/07/18 07:06:52;;;;;;;6.95;6.22;;;;;;;;;;5047136;28;20537;-72
2022/07/18 07:09:18;;;;;;;6.03;5.50;;;;;;;;;;5051657;28;20074;-72
2022/07/18 07:11:44;;;;;;;6.32;5.82;;;;;;;;;;5050620;28;20070;-72
2022/07/18 07:14:10;;;;;;;7.18;6.18;;;;;;;;;;5060685;28;20036;-73
2022/07/18 07:16:36;;;;;;;6.22;5.72;;;;;;;;;;5047651;28;20040;-72
2022/07/18 07:19:03;;;;;;;6.38;5.80;;;;;;;;;;5049348;28;20021;-71
2022/07/18 07:21:29;;;;;;;8.65;6.28;;;;;;;;;;5052025;28;20020;-72
2022/07/18 07:23:55;;;;;;;6.82;6.03;;;;;;;;;;5054464;28;20404;-76
2022/07/18 07:26:21;;;;;;;8.05;5.80;;;;;;;;;;5052007;28;20024;-72
2022/07/18 07:28:47;;;;;;;6.38;5.90;;;;;;;;;;5036119;28;20020;-72
2022/07/18 07:31:13;;;;;;;6.18;5.45;;;;;;;;;;5052353;28;20032;-72
2022/07/18 07:33:39;;;;;;;6.43;5.80;;;;;;;;;;5062167;28;20778;-72
2022/07/18 07:36:06;;;;;;;6.57;5.97;;;;;;;;;;5061746;28;20573;-72
2022/07/18 07:38:32;;;;;;;5.78;5.28;;;;;;;;;;5047990;28;20418;-72
2022/07/18 07:41:01;;;;;;;6.72;6.03;;;;;;;;;;5046530;28;20621;-72
2022/07/18 07:43:27;;;;;;;6.75;6.07;;;;;;;;;;5047815;28;20028;-72
2022/07/18 07:45:55;;;;;;;6.60;6.10;;;;;;;;;;5047547;28;20045;-72
2022/07/18 07:48:22;;;;;;;6.70;6.13;;;;;;;;;;5057782;28;20048;-72
2022/07/18 07:50:50;;;;;;;6.10;5.60;;;;;;;;;;5061466;28;20423;-72
2022/07/18 07:53:16;;;;;;;6.60;6.10;;;;;;;;;;5063370;28;20082;-72
2022/07/18 07:55:42;;;;;;;6.25;5.70;;;;;;;;;;5062619;28;20036;-72
2022/07/18 07:58:09;;;;;;;6.63;5.95;;;;;;;;;;5062998;28;20031;-72
2022/07/18 08:00:35;;;;;;;6.03;5.53;;;;;;;;;;5062720;28;20031;-72
2022/07/18 08:03:02;;;;;;;7.05;6.20;;;;;;;;;;5063245;28;20016;-72
2022/07/18 08:05:30;;;;;;;6.57;5.97;;;;;;;;;;5043572;28;20028;-72
2022/07/18 08:07:57;;;;;;;6.72;6.20;;;;;;;;;;5054139;28;20474;-73
2022/07/18 08:10:23;;;;;;;6.50;5.80;;;;;;;;;;5054136;28;20028;-73
2022/07/18 08:12:49;;;;;;;7.10;5.53;;;;;;;;;;5058814;28;20024;-72
2022/07/18 08:15:15;;;;;;;6.43;5.78;;;;;;;;;;5062646;28;20541;-73
2022/07/18 08:17:41;;;;;;;5.68;5.28;;;;;;;;;;5059922;28;20051;-72
2022/07/18 08:20:08;;;;;;;6.97;6.00;;;;;;;;;;5053832;28;20107;-73
2022/07/18 08:22:34;;;;;;;6.20;5.70;;;;;;;;;;5047024;28;20021;-72
2022/07/18 08:25:01;;;;;;;6.20;5.70;;;;;;;;;;5054190;28;20056;-72
2022/07/18 08:27:27;;;;;;;5.95;5.47;;;;;;;;;;5062392;28;20013;-72
2022/07/18 08:29:53;;;;;;;6.15;5.60;;;;;;;;;;5062485;28;20016;-72
2022/07/18 08:32:19;;;;;;;5.88;5.30;;;;;;;;;;5060345;28;20020;-72
2022/07/18 08:34:45;;;;;;;7.72;5.60;;;;;;;;;;5061841;28;20029;-72
2022/07/18 08:37:11;;;;;;;5.43;5.03;;;;;;;;;;5062087;28;20176;-72
2022/07/18 08:39:37;;;;;;;7.00;5.38;;;;;;;;;;5053096;28;20267;-73
2022/07/18 08:42:04;;;;;;;5.38;4.88;;;;;;;;;;5048457;28;20025;-72
2022/07/18 08:44:30;;;;;;;5.90;5.40;;;;;;;;;;5055510;28;20032;-72
2022/07/18 08:46:57;;;;;;;5.35;4.90;;;;;;;;;;5061744;28;20438;-72
2022/07/18 08:49:24;;;;;;;5.53;5.10;;;;;;;;;;5061981;28;20031;-72
2022/07/18 08:51:51;;;;;;;5.63;4.95;;;;;;;;;;5061759;28;20640;-72
2022/07/18 08:54:18;;;;;;;5.88;5.45;;;;;;;;;;5061852;28;20033;-72
2022/07/18 08:56:44;;;;;;;6.22;5.28;;;;;;;;;;5061905;28;20027;-72
2022/07/18 08:59:10;;;;;;;6.25;5.60;;;;;;;;;;5054935;28;20029;-73
2022/07/18 09:01:36;;;;;;;5.80;5.30;;;;;;;;;;5054021;28;20025;-73
2022/07/18 09:04:14;;;;;;;7.07;5.75;;;;;;;;;;5061889;28;20016;-72
2022/07/18 09:06:48;;;;;;;6.78;5.53;;;;;;;;;;5062092;28;20109;-72
2022/07/18 09:09:15;;;;;;;6.80;5.68;;;;;;;;;;5060087;28;20035;-72
2022/07/18 09:11:54;;;;;;;6.30;5.78;;;;;;;;;;5061452;28;20052;-72
2022/07/18 09:14:40;;;;;;;6.05;5.55;;;;;;;;;;5061561;28;20033;-72
2022/07/18 09:17:06;;;;;;;7.05;5.50;;;;;;;;;;5061355;28;20040;-72
2022/07/18 09:19:33;;;;;;;5.88;5.38;;;;;;;;;;5061672;28;20102;-72
2022/07/18 09:22:22;;;;;;;5.75;5.32;;;;;;;;;;5059840;28;20025;-72
2022/07/18 09:25:00;;;;;;;5.75;5.35;;;;;;;;;;5051261;28;20124;-72
2022/07/18 09:27:34;;;;;;;6.25;5.68;;;;;;;;;;5061255;28;20112;-72
2022/07/18 09:30:18;;;;;;;6.00;5.50;;;;;;;;;;5061766;28;20055;-72
2022/07/18 09:33:05;;;;;;;5.93;5.32;;;;;;;;;;5060088;28;20055;-72
2022/07/18 09:35:42;;;;;;;6.40;5.90;;;;;;;;;;5061058;28;20047;-72
2022/07/18 09:38:12;;;;;;;6.10;5.60;;;;;;;;;;5061330;28;20055;-72
2022/07/18 09:40:39;;;;;;;6.05;5.65;;;;;;;;;;5048857;28;20259;-72
2022/07/18 09:43:07;;;;;;;6.53;5.93;;;;;;;;;;5059315;28;20059;-72
2022/07/18 09:45:33;;;;;;;6.38;5.72;;;;;;;;;;5059064;28;20028;-72
2022/07/18 09:47:59;;;;;;;6.28;5.78;;;;;;;;;;5061242;28;20037;-72
2022/07/18 09:50:28;;;;;;;7.90;5.78;;;;;;;;;;5061772;28;20039;-71
2022/07/18 09:52:59;;;;;;;6.40;5.90;;;;;;;;;;5043429;28;20230;-72
2022/07/18 09:55:25;;;;;;;7.10;6.50;;;;;;;;;;5059561;28;20135;-72
2022/07/18 09:58:18;;;;;;;6.88;6.28;;;;;;;;;;5061051;28;20028;-72
2022/07/18 10:00:44;;;;;;;6.40;5.88;;;;;;;;;;5025548;28;20060;-72
2022/07/18 10:03:10;;;;;;;9.73;6.57;;;;;;;;;;5043174;28;20798;-72
2022/07/18 10:05:38;;;;;;;6.70;6.20;;;;;;;;;;5059564;28;20031;-72
2022/07/18 10:08:07;;;;;;;6.43;5.82;;;;;;;;;;5061269;28;20262;-73
2022/07/18 10:10:34;;;;;;;5.80;5.40;;;;;;;;;;5060771;28;20028;-73
2022/07/18 10:13:01;;;;;;;6.95;6.35;;;;;;;;;;5061052;28;20017;-73
2022/07/18 10:15:29;;;;;;;6.47;5.93;;;;;;;;;;5059277;28;20050;-72
2022/07/18 10:17:56;;;;;;;6.30;5.80;;;;;;;;;;5060449;28;20086;-72
2022/07/18 10:20:29;;;;;;;6.63;6.05;;;;;;;;;;5061391;28;20484;-72
2022/07/18 10:22:57;;;;;;;7.10;6.03;;;;;;;;;;5059738;28;20028;-73
2022/07/18 10:25:23;;;;;;;6.32;5.82;;;;;;;;;;5044203;28;20017;-73
2022/07/18 10:27:50;;;;;;;9.82;6.03;;;;;;;;;;5049006;28;20192;-73
2022/07/18 10:30:16;;;;;;;6.10;5.57;;;;;;;;;;5051439;28;20647;-73
2022/07/18 10:32:43;;;;;;;6.30;5.80;;;;;;;;;;5053748;28;20035;-73
2022/07/18 10:35:12;;;;;;;6.50;6.00;;;;;;;;;;5048703;28;20064;-72
2022/07/18 10:37:39;;;;;;;6.70;6.18;;;;;;;;;;5059990;28;20104;-72
2022/07/18 10:40:40;;;;;;;6.70;6.20;;;;;;;;;;5064516;28;20028;-73
2022/07/18 10:43:39;;;;;;;6.13;5.53;;;;;;;;;;4978740;28;20596;-73
2022/07/18 10:46:06;;;;;;;6.20;5.65;;;;;;;;;;5023204;28;20051;-73
2022/07/18 10:48:35;;;;;;;6.18;5.68;;;;;;;;;;5063778;28;20384;-73
2022/07/18 10:51:08;;;;;;;6.22;5.72;;;;;;;;;;5064101;28;20582;-75
2022/07/18 10:53:53;;;;;;;6.25;5.63;;;;;;;;;;5064096;28;20097;-73
2022/07/18 10:56:28;;;;;;;5.90;5.50;;;;;;;;;;5062571;28;20028;-73
2022/07/18 10:59:01;;;;;;;6.00;5.60;;;;;;;;;;5064226;28;20020;-73
2022/07/18 11:01:27;;;;;;;6.65;5.88;;;;;;;;;;5064198;28;20020;-73
2022/07/18 11:04:26;;;;;;;7.07;5.85;;;;;;;;;;5046202;28;20090;-72
2022/07/18 11:07:13;;;;;;;6.60;6.10;;;;;;;;;;5046844;28;20112;-73
2022/07/18 11:09:46;;;;;;;6.60;6.10;;;;;;;;;;5050776;28;20028;-72
2022/07/18 11:12:18;;;;;;;6.50;5.90;;;;;;;;;;5062476;28;20016;-73
2022/07/18 11:15:03;;;;;;;6.40;5.93;;;;;;;;;;5061728;28;20047;-73
2022/07/18 11:18:01;;;;;;;6.70;6.20;;;;;;;;;;5060583;28;20556;-72
2022/07/18 11:20:33;;;;;;;7.30;6.70;;;;;;;;;;5017412;28;20037;-73
2022/07/18 11:23:01;;;;;;;6.85;6.25;;;;;;;;;;5048714;28;20020;-73
2022/07/18 11:25:28;;;;;;;7.03;6.53;;;;;;;;;;5062076;28;20028;-73
2022/07/18 11:27:55;;;;;;;6.70;6.20;;;;;;;;;;5063364;28;20124;-73
2022/07/18 11:30:22;;;;;;;7.05;6.47;;;;;;;;;;5063956;28;20025;-73
2022/07/18 11:32:48;;;;;;;7.53;6.78;;;;;;;;;;5063435;28;20512;-73
2022/07/18 11:35:14;;;;;;;7.50;6.95;;;;;;;;;;5062416;28;20032;-73
2022/07/18 11:37:48;;;;;;;7.50;6.90;;;;;;;;;;5063068;28;20078;-72
2022/07/18 11:40:14;;;;;;;7.18;6.55;;;;;;;;;;5063275;28;20784;-73
2022/07/18 11:42:41;;;;;;;9.82;6.93;;;;;;;;;;5063274;28;20025;-73
2022/07/18 11:45:12;;;;;;;6.80;6.30;;;;;;;;;;5061234;28;20021;-73
2022/07/18 11:47:40;;;;;;;13.13;6.45;;;;;;;;;;5062974;28;20032;-72
2022/07/18 11:50:06;;;;;;;7.10;6.50;;;;;;;;;;5062815;28;20062;-72
2022/07/18 11:52:32;;;;;;;7.53;6.82;;;;;;;;;;5063592;28;20047;-74
2022/07/18 11:55:00;;;;;;;6.90;6.40;;;;;;;;;;5062943;28;20032;-72
2022/07/18 11:57:30;;;;;;;7.28;6.70;;;;;;;;;;5047525;28;20480;-73
2022/07/18 11:59:56;;;;;;;7.07;6.40;;;;;;;;;;5062791;28;20058;-72
2022/07/18 12:02:41;;;;;;;7.13;6.53;;;;;;;;;;5062200;28;20027;-73
2022/07/18 12:05:07;;;;;;;7.10;6.60;;;;;;;;;;5061301;28;20428;-73
2022/07/18 12:07:33;;;;;;;7.13;6.50;;;;;;;;;;5035994;28;20025;-74
2022/07/18 12:10:14;;;;;;;10.35;7.40;;;;;;;;;;5052617;28;20400;-74
2022/07/18 12:12:41;;;;;;;7.30;6.70;;;;;;;;;;5038055;28;20028;-72
2022/07/18 12:15:08;;;;;;;7.20;6.55;;;;;;;;;;5057979;28;20041;-73
2022/07/18 12:17:43;;;;;;;6.85;6.32;;;;;;;;;;5053017;28;20077;-73
2022/07/18 12:20:10;;;;;;;7.22;6.63;;;;;;;;;;5058640;28;20119;-74
2022/07/18 12:22:37;;;;;;;7.35;6.70;;;;;;;;;;5054093;28;20028;-74
2022/07/18 12:25:04;;;;;;;7.75;7.15;;;;;;;;;;5055219;28;20128;-72
2022/07/18 12:27:30;;;;;;;7.18;6.57;;;;;;;;;;5058857;28;20029;-72
2022/07/18 12:30:08;;;;;;;7.35;6.60;;;;;;;;;;5047986;28;20036;-74
2022/07/18 12:32:39;;;;;;;6.30;5.75;;;;;;;;;;5053650;28;20020;-72
2022/07/18 12:35:07;;;;;;;6.28;5.68;;;;;;;;;;5056437;28;20040;-71
2022/07/18 12:37:33;;;;;;;6.32;5.90;;;;;;;;;;5051287;28;20021;-71
2022/07/18 12:40:00;;;;;;;6.75;6.30;;;;;;;;;;5059433;28;20081;-72
2022/07/18 12:42:30;;;;;;;6.45;5.88;;;;;;;;;;5047888;28;20163;-74
2022/07/18 12:44:56;;;;;;;6.82;6.22;;;;;;;;;;5041534;28;20021;-74
2022/07/18 12:47:22;;;;;;;7.20;6.65;;;;;;;;;;5048768;28;20025;-74
2022/07/18 12:49:49;;;;;;;6.60;6.00;;;;;;;;;;5044829;28;20594;-73
2022/07/18 12:52:15;;;;;;;5.78;5.25;;;;;;;;;;5055502;28;20055;-74
2022/07/18 12:54:41;;;;;;;6.18;5.70;;;;;;;;;;5045900;28;20646;-73
2022/07/18 12:57:07;;;;;;;6.35;5.70;;;;;;;;;;5054596;28;20542;-72
2022/07/18 12:59:33;;;;;;;6.25;5.65;;;;;;;;;;5049157;28;20079;-73
2022/07/18 13:01:59;;;;;;;6.60;6.10;;;;;;;;;;5049423;28;20028;-74
2022/07/18 13:04:25;;;;;;;5.88;5.47;;;;;;;;;;5041125;28;20318;-73
2022/07/18 13:06:51;;;;;;;5.80;5.40;;;;;;;;;;5044192;28;20036;-74
2022/07/18 13:09:18;;;;;;;9.48;6.13;;;;;;;;;;5057035;28;20029;-73
2022/07/18 13:11:47;;;;;;;6.38;5.88;;;;;;;;;;5040704;28;20037;-73
2022/07/18 13:14:13;;;;;;;6.30;5.80;;;;;;;;;;5040125;28;20028;-73
2022/07/18 13:16:39;;;;;;;6.13;5.53;;;;;;;;;;5041979;28;20400;-73
2022/07/18 13:19:05;;;;;;;6.57;5.97;;;;;;;;;;5054898;28;20109;-73
2022/07/18 13:21:31;;;;;;;5.72;5.28;;;;;;;;;;5048089;28;20474;-73
2022/07/18 13:23:58;;;;;;;5.93;5.13;;;;;;;;;;5057682;28;20024;-72
2022/07/18 13:26:24;;;;;;;6.28;5.68;;;;;;;;;;5051032;28;20086;-73
2022/07/18 13:28:50;;;;;;;6.07;5.47;;;;;;;;;;5050543;28;20021;-73
2022/07/18 13:31:16;;;;;;;5.97;5.43;;;;;;;;;;5040559;28;20028;-73
2022/07/18 13:33:42;;;;;;;5.78;5.28;;;;;;;;;;5058313;28;20083;-73
2022/07/18 13:36:09;;;;;;;6.20;5.70;;;;;;;;;;5053082;28;20066;-73
2022/07/18 13:38:35;;;;;;;6.28;5.78;;;;;;;;;;5055360;28;20024;-73
2022/07/18 13:41:01;;;;;;;6.50;5.75;;;;;;;;;;5055203;28;20385;-73
2022/07/18 13:43:27;;;;;;;6.38;5.78;;;;;;;;;;5044202;28;20112;-72
2022/07/18 13:45:53;;;;;;;6.57;5.93;;;;;;;;;;5044003;28;20025;-72
2022/07/18 13:48:19;;;;;;;5.75;5.35;;;;;;;;;;5051133;28;20024;-73
2022/07/18 13:50:46;;;;;;;6.22;5.72;;;;;;;;;;5054201;28;20020;-73
2022/07/18 13:53:12;;;;;;;6.20;5.70;;;;;;;;;;5047057;28;20112;-72
2022/07/18 13:55:38;;;;;;;6.38;5.88;;;;;;;;;;5040212;28;20104;-72
2022/07/18 13:58:04;;;;;;;6.47;6.00;;;;;;;;;;5046184;28;20055;-72
2022/07/18 14:00:30;;;;;;;6.50;6.00;;;;;;;;;;5047820;28;20025;-72
2022/07/18 14:02:56;;;;;;;6.55;6.05;;;;;;;;;;5058063;28;20112;-72
2022/07/18 14:05:23;;;;;;;6.43;5.82;;;;;;;;;;5051197;28;20029;-73
2022/07/18 14:07:49;;;;;;;6.25;5.75;;;;;;;;;;5045189;28;20028;-73
2022/07/18 14:10:16;;;;;;;6.70;6.20;;;;;;;;;;5057234;28;20111;-72
2022/07/18 14:12:42;;;;;;;7.03;6.45;;;;;;;;;;5047247;28;20525;-73
2022/07/18 14:15:09;;;;;;;7.43;6.72;;;;;;;;;;5049884;28;20068;-73
2022/07/18 14:17:35;;;;;;;6.63;6.20;;;;;;;;;;5047142;28;20040;-72
2022/07/18 14:20:01;;;;;;;6.80;6.30;;;;;;;;;;5050487;28;20570;-73
2022/07/18 14:22:27;;;;;;;7.07;6.57;;;;;;;;;;5044875;28;20029;-73
2022/07/18 14:24:53;;;;;;;6.40;6.00;;;;;;;;;;5053160;28;20037;-73
2022/07/18 14:27:20;;;;;;;7.35;6.70;;;;;;;;;;5052166;28;20021;-73
2022/07/18 14:29:46;;;;;;;7.65;6.97;;;;;;;;;;5050883;28;20647;-74
2022/07/18 14:32:12;;;;;;;7.28;6.65;;;;;;;;;;5047090;28;20423;-74
2022/07/18 14:34:38;;;;;;;7.93;7.10;;;;;;;;;;5050703;28;20043;-73
2022/07/18 14:37:04;;;;;;;7.35;6.50;;;;;;;;;;5061457;28;20038;-73
2022/07/18 14:39:30;;;;;;;8.15;6.97;;;;;;;;;;5059481;28;20025;-73
2022/07/18 14:41:57;;;;;;;6.90;6.40;;;;;;;;;;5044085;28;20021;-73
2022/07/18 14:44:24;;;;;;;10.30;6.63;;;;;;;;;;5055728;28;20111;-73
2022/07/18 14:46:51;;;;;;;7.15;6.60;;;;;;;;;;5054127;28;20127;-73
2022/07/18 14:49:17;;;;;;;7.32;6.72;;;;;;;;;;5052724;28;20396;-73